Time;durP1;ratioP1;P1;durP2;ratioP2;P2;SDS_P1;SDS_P2;PMS_P1;PMS_P2;Temp;Humidity;BMP_temperature;BMP_pressure;BME280_temperature;BME280_humidity;BME280_pressure;Samples;Min_cycle;Max_cycle;Signal;HPM_P1;HPM_P2
2022/08/22 00:01:51;;;;;;;0.40;0.40;;;18.80;78.50;;;18.79;64.78;94748.31;5007943;28;20225;-78
2022/08/22 00:04:58;;;;;;;0.50;0.50;;;18.80;78.30;;;18.80;64.85;94747.28;5033564;28;20246;-79
2022/08/22 00:07:57;;;;;;;0.40;0.40;;;18.70;78.30;;;18.76;64.84;94756.78;5033443;28;20306;-79
2022/08/22 00:11:27;;;;;;;0.40;0.40;;;18.80;78.50;;;18.73;65.03;94742.91;5010075;28;20261;-79
2022/08/22 00:14:16;;;;;;;0.50;0.50;;;18.70;78.60;;;18.72;64.99;94749.31;5031800;28;20749;-78
2022/08/22 00:17:19;;;;;;;0.50;0.50;;;18.70;78.50;;;18.73;65.02;94742.13;5016836;28;20244;-79
2022/08/22 00:20:01;;;;;;;0.40;0.40;;;18.70;78.50;;;18.71;65.13;94738.91;5039358;28;20214;-79
2022/08/22 00:22:46;;;;;;;0.45;0.45;;;18.70;78.70;;;18.71;64.57;94747.69;5028112;28;20224;-79
2022/08/22 00:25:44;;;;;;;0.50;0.50;;;18.70;78.70;;;18.69;64.84;94747.13;4997049;28;20224;-79
2022/08/22 00:28:41;;;;;;;0.40;0.40;;;18.60;78.60;;;18.68;65.10;94739.41;5003746;28;20234;-78
2022/08/22 00:31:32;;;;;;;0.50;0.50;;;18.70;78.70;;;18.68;64.96;94747.38;4996898;28;20720;-78
2022/08/22 00:34:21;;;;;;;0.40;0.40;;;18.60;78.80;;;18.66;64.97;94741.50;4996862;28;20201;-78
2022/08/22 00:37:07;;;;;;;0.50;0.50;;;18.60;78.50;;;18.64;65.26;94748.91;5012618;28;20298;-79
2022/08/22 00:40:11;;;;;;;0.50;0.50;;;18.60;78.60;;;18.59;64.87;94739.03;5024891;28;20211;-78
2022/08/22 00:43:14;;;;;;;0.50;0.50;;;18.60;78.60;;;18.59;64.59;94743.53;5014657;28;20227;-79
2022/08/22 00:46:05;;;;;;;0.40;0.40;;;18.60;78.50;;;18.54;64.84;94745.09;5018796;28;20290;-79
2022/08/22 00:48:56;;;;;;;0.50;0.50;;;18.60;78.60;;;18.52;65.09;94739.22;5003530;28;20283;-79
2022/08/22 00:52:07;;;;;;;0.43;0.43;;;18.50;78.60;;;18.53;65.05;94740.81;5018751;28;20227;-79
2022/08/22 00:55:02;;;;;;;0.40;0.40;;;18.50;78.60;;;18.49;65.46;94744.22;5020851;28;20196;-78
2022/08/22 00:58:14;;;;;;;0.50;0.50;;;18.50;78.70;;;18.47;64.92;94749.78;4996186;28;20259;-78
2022/08/22 01:00:49;;;;;;;0.50;0.50;;;18.50;78.80;;;18.46;64.77;94745.50;5012014;28;20196;-78
2022/08/22 01:03:43;;;;;;;0.50;0.50;;;18.50;78.80;;;18.45;64.90;94748.41;5034468;28;20196;-79
2022/08/22 01:06:25;;;;;;;0.40;0.40;;;18.40;78.70;;;18.44;64.89;94744.94;5017322;28;20259;-79
2022/08/22 01:09:07;;;;;;;0.47;0.47;;;18.40;78.90;;;18.40;65.06;94735.88;5010065;28;20207;-78
2022/08/22 01:12:22;;;;;;;0.47;0.47;;;18.40;78.80;;;18.37;65.07;94737.16;5013624;28;20212;-78
2022/08/22 01:14:57;;;;;;;0.47;0.47;;;18.40;78.90;;;18.36;65.14;94740.88;5036020;28;20220;-78
2022/08/22 01:17:43;;;;;;;0.40;0.40;;;18.40;79.00;;;18.34;65.38;94735.00;5027671;28;20246;-79
2022/08/22 01:21:09;;;;;;;0.50;0.50;;;18.30;79.00;;;18.29;65.52;94729.63;5012123;28;20200;-79
2022/08/22 01:25:16;;;;;;;0.60;0.60;;;18.40;79.00;;;18.25;65.76;94733.81;5011552;28;20314;-78
2022/08/22 01:28:06;;;;;;;0.50;0.50;;;18.30;79.10;;;18.22;65.69;94735.13;5036412;28;20228;-79
2022/08/22 01:30:55;;;;;;;0.50;0.50;;;18.30;79.20;;;18.19;65.46;94732.94;5014057;28;20195;-79
2022/08/22 01:33:50;;;;;;;0.50;0.50;;;18.30;79.20;;;18.17;65.29;94729.72;5008191;28;20250;-79
2022/08/22 01:36:55;;;;;;;0.50;0.50;;;18.20;79.10;;;18.14;65.42;94742.66;5012900;28;20208;-79
2022/08/22 01:40:02;;;;;;;0.47;0.47;;;18.20;79.20;;;18.11;65.56;94736.00;5028550;28;20203;-79
2022/08/22 01:43:02;;;;;;;0.50;0.50;;;18.10;79.20;;;18.07;65.78;94732.22;5011885;28;20270;-79
2022/08/22 01:45:50;;;;;;;0.50;0.50;;;18.10;79.30;;;18.05;65.92;94729.81;4995588;28;20659;-79
2022/08/22 01:48:51;;;;;;;0.50;0.50;;;18.10;79.40;;;17.99;65.80;94730.81;5009097;28;20725;-78
2022/08/22 01:51:43;;;;;;;0.50;0.50;;;18.10;79.60;;;17.99;65.74;94737.94;4979468;28;20710;-79
2022/08/22 01:54:37;;;;;;;0.50;0.50;;;18.10;79.50;;;17.95;65.71;94729.66;5013038;28;20218;-80
2022/08/22 01:57:07;;;;;;;0.45;0.45;;;18.00;79.70;;;17.95;65.69;94736.84;5000097;28;20205;-80
2022/08/22 01:59:49;;;;;;;0.50;0.50;;;18.00;79.70;;;17.93;65.85;94732.53;5000350;28;20621;-79
2022/08/22 02:02:38;;;;;;;0.50;0.50;;;18.00;79.80;;;17.93;66.18;94735.19;5017834;28;20721;-80
2022/08/22 02:05:35;;;;;;;0.60;0.60;;;17.90;79.80;;;17.88;66.38;94735.13;5015010;28;20228;-80
2022/08/22 02:08:26;;;;;;;0.50;0.50;;;17.90;80.20;;;17.85;65.86;94727.63;5019322;28;20208;-80
2022/08/22 02:10:59;;;;;;;0.50;0.50;;;17.90;80.10;;;17.84;66.51;94733.97;5021036;28;20201;-80
2022/08/22 02:13:45;;;;;;;0.50;0.50;;;17.90;80.10;;;17.80;66.31;94730.22;5019460;28;20291;-80
2022/08/22 02:16:41;;;;;;;0.60;0.60;;;17.90;80.20;;;17.79;66.52;94733.09;5026534;28;20227;-80
2022/08/22 02:19:14;;;;;;;0.50;0.50;;;17.80;80.10;;;17.78;66.16;94729.63;4995157;28;20738;-78
2022/08/22 02:22:17;;;;;;;0.52;0.52;;;17.80;80.10;;;17.74;66.60;94733.81;5020391;28;20748;-80
2022/08/22 02:25:08;;;;;;;0.60;0.60;;;17.80;80.10;;;17.73;66.15;94729.56;5005097;28;20303;-80
2022/08/22 02:28:12;;;;;;;0.50;0.50;;;17.80;80.10;;;17.65;66.70;94727.31;5026621;28;20219;-78
2022/08/22 02:31:10;;;;;;;0.50;0.50;;;17.70;80.10;;;17.63;66.63;94724.09;5011262;28;20710;-80
2022/08/22 02:33:45;;;;;;;0.50;0.50;;;17.70;80.10;;;17.64;66.73;94728.34;5013409;28;20645;-80
2022/08/22 02:36:21;;;;;;;0.50;0.50;;;17.70;80.10;;;17.63;66.56;94724.91;5019760;28;20701;-80
2022/08/22 02:39:21;;;;;;;0.50;0.50;;;17.60;80.00;;;17.62;66.91;94723.28;4992952;28;20231;-79
2022/08/22 02:41:58;;;;;;;0.50;0.50;;;17.60;80.00;;;17.62;66.45;94725.16;5021846;28;20212;-80
2022/08/22 02:44:34;;;;;;;0.60;0.60;;;17.60;80.00;;;17.59;66.48;94716.63;5020433;28;20307;-79
2022/08/22 02:47:28;;;;;;;0.55;0.55;;;17.60;80.10;;;17.58;66.62;94720.31;5020067;28;20212;-79
2022/08/22 02:50:20;;;;;;;0.60;0.60;;;17.60;80.30;;;17.58;66.83;94728.25;5015803;28;20605;-80
2022/08/22 02:53:17;;;;;;;0.50;0.50;;;17.60;80.20;;;17.55;66.75;94723.47;5002906;28;20224;-79
2022/08/22 02:56:02;;;;;;;0.50;0.50;;;17.60;80.30;;;17.53;67.21;94714.13;5020078;28;20599;-78
2022/08/22 02:58:35;;;;;;;0.50;0.50;;;17.60;80.50;;;17.53;67.19;94722.88;5018208;28;20233;-79
2022/08/22 03:01:02;;;;;;;0.50;0.50;;;17.60;80.30;;;17.54;67.10;94724.50;5033730;28;20295;-79
2022/08/22 03:03:39;;;;;;;0.43;0.43;;;17.50;80.10;;;17.55;66.70;94714.69;5021068;28;20216;-79
2022/08/22 03:06:36;;;;;;;0.50;0.50;;;17.50;80.40;;;17.54;67.19;94713.06;5003466;28;20228;-79
2022/08/22 03:09:29;;;;;;;0.50;0.50;;;17.50;80.50;;;17.51;67.05;94709.06;5012779;28;20216;-79
2022/08/22 03:12:19;;;;;;;0.52;0.52;;;17.50;80.40;;;17.51;66.76;94710.91;4990907;28;20239;-79
2022/08/22 03:15:17;;;;;;;0.50;0.50;;;17.50;80.50;;;17.48;67.13;94706.06;5020678;28;20270;-80
2022/08/22 03:18:04;;;;;;;0.55;0.55;;;17.50;80.30;;;17.47;67.44;94715.88;5010410;28;20221;-79
2022/08/22 03:20:52;;;;;;;0.50;0.50;;;17.50;80.50;;;17.42;67.10;94713.94;5018604;28;20602;-79
2022/08/22 03:23:37;;;;;;;0.50;0.50;;;17.50;80.40;;;17.40;67.23;94716.03;5022796;28;20649;-80
2022/08/22 03:26:20;;;;;;;0.50;0.50;;;17.50;80.80;;;17.38;67.58;94712.84;5028246;28;20234;-79
2022/08/22 03:29:01;;;;;;;0.50;0.50;;;17.50;80.60;;;17.38;67.12;94712.84;5012610;28;20234;-79
2022/08/22 03:31:31;;;;;;;0.50;0.50;;;17.50;80.70;;;17.39;67.45;94705.66;5016126;28;20713;-80
2022/08/22 03:34:22;;;;;;;0.50;0.50;;;17.40;80.70;;;17.39;67.19;94706.50;5027569;28;20207;-80
2022/08/22 03:37:18;;;;;;;0.50;0.50;;;17.40;80.90;;;17.37;67.68;94711.22;4988598;28;20221;-80
2022/08/22 03:40:00;;;;;;;0.50;0.50;;;17.40;81.00;;;17.37;67.42;94711.22;4999293;28;20292;-79
2022/08/22 03:43:24;;;;;;;0.50;0.50;;;17.40;81.00;;;17.36;67.35;94717.56;4995750;28;20235;-81
2022/08/22 03:46:15;;;;;;;0.50;0.50;;;17.40;81.00;;;17.35;67.75;94709.84;5018222;28;20287;-80
2022/08/22 03:49:07;;;;;;;0.50;0.50;;;17.40;81.00;;;17.31;67.53;94709.53;5028765;28;20224;-78
2022/08/22 03:51:55;;;;;;;0.50;0.50;;;17.40;81.00;;;17.34;67.34;94716.97;5013910;28;20597;-79
2022/08/22 03:54:51;;;;;;;0.70;0.70;;;17.30;81.00;;;17.31;67.58;94717.47;5013770;28;20251;-80
2022/08/22 03:58:08;;;;;;;0.60;0.60;;;17.40;81.20;;;17.30;67.46;94713.22;5014101;28;20703;-79
2022/08/22 04:01:18;;;;;;;0.50;0.50;;;17.40;81.50;;;17.28;68.10;94726.72;5026951;28;20287;-79
2022/08/22 04:04:09;;;;;;;0.60;0.60;;;17.30;81.20;;;17.25;67.84;94721.88;5014468;28;20278;-80
2022/08/22 04:06:57;;;;;;;0.50;0.50;;;17.30;81.20;;;17.23;67.89;94723.94;5013372;28;20263;-80
2022/08/22 04:09:51;;;;;;;0.50;0.50;;;17.30;81.30;;;17.23;67.89;94720.50;5021995;28;20618;-80
2022/08/22 04:12:57;;;;;;;0.50;0.50;;;17.30;81.30;;;17.16;67.95;94717.19;5014562;28;20299;-80
2022/08/22 04:15:56;;;;;;;0.60;0.60;;;17.30;81.30;;;17.15;67.88;94723.53;5000820;28;20708;-80
2022/08/22 04:19:06;;;;;;;0.60;0.60;;;17.30;81.40;;;17.08;68.48;94723.69;5021094;28;20646;-81
2022/08/22 04:21:56;;;;;;;0.50;0.50;;;17.30;81.40;;;17.06;68.33;94728.41;5003261;28;20232;-81
2022/08/22 04:24:58;;;;;;;0.50;0.50;;;17.20;81.30;;;17.01;68.55;94725.69;5013248;28;20197;-81
2022/08/22 04:27:52;;;;;;;0.60;0.60;;;17.20;81.40;;;16.96;69.16;94732.47;4997286;28;20248;-80
2022/08/22 04:30:40;;;;;;;0.60;0.60;;;17.20;81.50;;;16.98;69.07;94728.78;5012960;28;20646;-81
2022/08/22 04:33:53;;;;;;;0.50;0.50;;;17.10;81.80;;;16.94;69.37;94737.22;5013372;28;20228;-80
2022/08/22 04:36:28;;;;;;;0.57;0.57;;;17.10;81.90;;;16.93;69.30;94729.50;4997008;28;20217;-79
2022/08/22 04:38:59;;;;;;;0.50;0.50;;;17.10;82.10;;;16.94;69.04;94737.22;5022251;28;20212;-80
2022/08/22 04:41:51;;;;;;;0.60;0.60;;;17.00;82.00;;;16.93;69.44;94737.44;5017634;28;20243;-80
2022/08/22 04:44:36;;;;;;;0.50;0.50;;;17.00;82.30;;;16.90;68.85;94729.94;5015162;28;20262;-80
2022/08/22 04:47:33;;;;;;;0.50;0.50;;;17.00;82.30;;;16.90;69.54;94736.03;5016457;28;20220;-80
2022/08/22 04:50:27;;;;;;;0.60;0.60;;;17.00;82.30;;;16.91;69.07;94736.88;4997600;28;20207;-81
2022/08/22 04:53:22;;;;;;;0.60;0.60;;;17.00;82.60;;;16.91;69.18;94740.31;5012249;28;20205;-79
2022/08/22 04:56:19;;;;;;;0.60;0.60;;;17.00;82.80;;;16.91;69.31;94734.22;5012593;28;20208;-80
2022/08/22 04:59:10;;;;;;;0.60;0.60;;;17.00;82.70;;;16.90;69.46;94741.34;5013502;28;20670;-80
2022/08/22 05:01:57;;;;;;;0.50;0.50;;;17.00;82.70;;;16.88;69.76;94738.13;5009473;28;20559;-79
2022/08/22 05:05:00;;;;;;;0.50;0.50;;;17.00;82.70;;;16.89;69.89;94752.97;5016229;28;20298;-79
2022/08/22 05:07:35;;;;;;;0.60;0.60;;;17.00;82.80;;;16.90;69.37;94745.84;5002164;28;20220;-79
2022/08/22 05:10:16;;;;;;;0.50;0.50;;;17.00;83.10;;;16.87;69.78;94741.00;5026883;28;20293;-80
2022/08/22 05:13:00;;;;;;;0.50;0.50;;;17.00;83.10;;;16.91;69.51;94748.25;5036283;28;20316;-79
2022/08/22 05:15:36;;;;;;;0.60;0.60;;;17.00;83.20;;;16.92;69.79;94741.16;5003070;28;20211;-78
2022/08/22 05:18:27;;;;;;;0.50;0.50;;;17.00;83.50;;;16.92;69.94;94747.25;4987942;28;20200;-78
2022/08/22 05:21:01;;;;;;;0.50;0.50;;;17.00;83.50;;;16.95;69.61;94744.13;5008185;28;20235;-80
2022/08/22 05:23:45;;;;;;;0.60;0.60;;;17.00;83.60;;;16.96;69.74;94740.44;5028370;28;20296;-79
2022/08/22 05:26:13;;;;;;;0.60;0.60;;;17.00;83.70;;;16.99;69.81;94751.59;5021447;28;20569;-79
2022/08/22 05:29:02;;;;;;;0.70;0.70;;;17.00;83.60;;;16.97;69.72;94749.19;5016585;28;20203;-79
2022/08/22 05:31:38;;;;;;;0.50;0.50;;;17.00;83.80;;;17.01;70.04;94752.19;5019995;28;20224;-79
2022/08/22 05:34:12;;;;;;;0.60;0.60;;;17.00;83.80;;;17.04;70.14;94757.00;5016493;28;20833;-79
2022/08/22 05:36:47;;;;;;;0.50;0.50;;;17.00;83.90;;;17.05;70.15;94756.78;5007804;28;20263;-80
2022/08/22 05:39:24;;;;;;;0.50;0.50;;;17.00;83.80;;;17.07;69.89;94753.88;4991959;28;20219;-79
2022/08/22 05:41:57;;;;;;;0.50;0.50;;;17.00;84.00;;;17.07;70.07;94745.94;5010005;28;20217;-79
2022/08/22 05:44:33;;;;;;;0.50;0.50;;;17.00;83.90;;;17.06;70.14;94754.91;5017680;28;20283;-79
2022/08/22 05:47:11;;;;;;;0.60;0.60;;;17.10;84.30;;;17.12;69.90;94759.28;5021828;28;20274;-79
2022/08/22 05:50:13;;;;;;;0.50;0.50;;;17.10;84.30;;;17.11;70.16;94755.84;5026897;28;20320;-80
2022/08/22 05:53:01;;;;;;;0.60;0.60;;;17.10;84.40;;;17.10;70.16;94764.81;5018476;28;20220;-79
2022/08/22 05:55:52;;;;;;;0.50;0.50;;;17.10;84.30;;;17.10;69.86;94756.88;5029373;28;20220;-80
2022/08/22 05:58:50;;;;;;;0.52;0.52;;;17.10;84.30;;;17.13;70.20;94753.72;5019776;28;20208;-80
2022/08/22 06:01:20;;;;;;;0.50;0.50;;;17.10;84.50;;;17.12;69.90;94759.28;5018505;28;20694;-80
2022/08/22 06:04:08;;;;;;;0.50;0.50;;;17.10;84.10;;;17.08;70.28;94766.88;5017523;28;20585;-80
2022/08/22 06:06:55;;;;;;;0.50;0.50;;;17.10;85.10;;;17.07;70.33;94767.91;4998273;28;20236;-79
2022/08/22 06:09:40;;;;;;;0.50;0.50;;;17.10;84.40;;;17.08;70.16;94761.59;5019149;28;20284;-80
2022/08/22 06:12:50;;;;;;;0.50;0.50;;;17.10;84.50;;;17.08;70.06;94771.41;5035757;28;20236;-79
2022/08/22 06:15:41;;;;;;;0.50;0.50;;;17.10;84.70;;;17.07;70.59;94754.69;5028805;28;20650;-80
2022/08/22 06:18:16;;;;;;;0.50;0.50;;;17.10;84.80;;;17.15;70.46;94760.63;5010781;28;20234;-80
2022/08/22 06:20:54;;;;;;;0.50;0.50;;;17.10;84.60;;;17.17;70.45;94758.56;5026529;28;20638;-79
2022/08/22 06:23:44;;;;;;;0.50;0.50;;;17.10;84.80;;;17.16;70.24;94759.59;5025905;28;20284;-80
2022/08/22 06:26:12;;;;;;;0.60;0.60;;;17.20;84.80;;;17.17;70.79;94748.75;5035002;28;20220;-79
2022/08/22 06:28:52;;;;;;;0.60;0.60;;;17.10;85.40;;;17.16;70.54;94751.66;5024793;28;20279;-80
2022/08/22 06:31:37;;;;;;;0.57;0.57;;;17.20;84.50;;;17.13;70.48;94751.06;5021448;28;20291;-78
2022/08/22 06:34:11;;;;;;;0.50;0.50;;;17.20;84.60;;;17.14;70.20;94743.94;5020167;28;20299;-79
2022/08/22 06:36:40;;;;;;;0.50;0.50;;;17.20;84.60;;;17.12;70.63;94743.38;5001669;28;20274;-79
2022/08/22 06:39:29;;;;;;;0.50;0.50;;;17.20;84.60;;;17.12;70.77;94746.03;5001684;28;20302;-80
2022/08/22 06:42:07;;;;;;;0.60;0.60;;;17.20;84.80;;;17.11;70.54;94747.88;4993472;28;20307;-80
2022/08/22 06:44:57;;;;;;;0.55;0.55;;;17.10;84.80;;;17.09;71.02;94744.66;5034984;28;20201;-79
2022/08/22 06:47:31;;;;;;;0.50;0.50;;;17.10;84.80;;;17.10;70.83;94740.97;5017171;28;20222;-79
2022/08/22 06:50:19;;;;;;;0.60;0.60;;;17.10;85.70;;;17.08;70.71;94742.25;5027878;28;20282;-80
2022/08/22 06:52:58;;;;;;;0.60;0.60;;;17.10;85.00;;;17.11;70.83;94747.88;5012312;28;20306;-79
2022/08/22 06:55:27;;;;;;;0.50;0.50;;;17.10;85.20;;;17.08;70.84;94740.38;5026794;28;20219;-79
2022/08/22 06:58:12;;;;;;;0.50;0.50;;;17.10;85.00;;;17.07;70.96;94749.38;5011128;28;20227;-79
2022/08/22 07:00:42;;;;;;;0.50;0.50;;;17.10;85.10;;;17.09;70.77;94751.81;4993010;28;20215;-79
2022/08/22 07:03:16;;;;;;;0.52;0.52;;;17.20;85.20;;;17.07;71.32;94751.22;5014059;28;20235;-80
2022/08/22 07:05:44;;;;;;;0.50;0.50;;;17.10;85.10;;;17.07;71.38;94740.63;5021965;28;20216;-79
2022/08/22 07:08:15;;;;;;;0.50;0.50;;;17.10;85.30;;;17.08;71.03;94750.19;5023417;28;20192;-79
2022/08/22 07:10:53;;;;;;;0.50;0.50;;;17.10;85.40;;;17.12;71.33;94744.19;5015148;28;20543;-79
2022/08/22 07:13:21;;;;;;;0.50;0.50;;;17.10;85.50;;;17.12;71.48;94757.44;5030120;28;20211;-78
2022/08/22 07:15:57;;;;;;;0.50;0.50;;;17.10;85.60;;;17.11;71.49;94747.88;5014883;28;20219;-78
2022/08/22 07:18:28;;;;;;;0.52;0.52;;;17.10;85.50;;;17.11;71.50;94747.06;4998954;28;20201;-79
2022/08/22 07:21:03;;;;;;;0.50;0.50;;;17.20;85.40;;;17.08;71.13;94736.94;5021197;28;20208;-78
2022/08/22 07:23:39;;;;;;;0.50;0.50;;;17.10;85.40;;;17.08;71.50;94739.59;5014597;28;20204;-78
2022/08/22 07:26:31;;;;;;;0.50;0.50;;;17.10;85.50;;;17.07;71.14;94753.88;5019508;28;20255;-79
2022/08/22 07:29:41;;;;;;;0.50;0.50;;;17.10;85.70;;;17.02;71.35;94741.34;5007179;28;20710;-79
2022/08/22 07:32:31;;;;;;;0.50;0.50;;;17.10;85.50;;;17.02;71.59;94738.69;5031531;28;20319;-79
2022/08/22 07:35:02;;;;;;;0.60;0.60;;;17.10;85.70;;;17.04;71.65;94744.56;5022230;28;20205;-80
2022/08/22 07:37:51;;;;;;;0.43;0.43;;;17.10;85.70;;;17.05;71.75;94738.22;5009960;28;20694;-79
2022/08/22 07:40:28;;;;;;;0.57;0.57;;;17.10;85.90;;;17.06;71.66;94742.47;5011495;28;20296;-80
2022/08/22 07:43:08;;;;;;;0.50;0.50;;;17.10;86.20;;;17.08;71.62;94736.94;4998883;28;20228;-78
2022/08/22 07:45:46;;;;;;;0.60;0.60;;;17.10;86.10;;;17.09;71.98;94742.00;5017220;28;20291;-78
2022/08/22 07:48:36;;;;;;;0.50;0.50;;;17.10;86.20;;;17.12;71.80;94733.59;5015615;28;20221;-79
2022/08/22 07:51:59;;;;;;;0.50;0.50;;;17.20;86.50;;;17.17;72.24;94738.16;5030825;28;20212;-78
2022/08/22 07:55:09;;;;;;;0.40;0.40;;;17.20;86.60;;;17.20;71.83;94728.94;5012423;28;20224;-78
2022/08/22 07:57:42;;;;;;;0.40;0.40;;;17.20;86.50;;;17.24;72.26;94738.81;5022212;28;20220;-79
2022/08/22 08:00:20;;;;;;;0.50;0.50;;;17.30;86.70;;;17.31;72.15;94745.81;5010436;28;20734;-79
2022/08/22 08:03:00;;;;;;;0.50;0.50;;;17.30;86.70;;;17.35;72.16;94736.38;5022755;28;20243;-80
2022/08/22 08:05:31;;;;;;;0.50;0.50;;;17.30;86.70;;;17.41;71.84;94743.38;4996363;28;20208;-80
2022/08/22 08:08:06;;;;;;;0.50;0.50;;;17.40;86.90;;;17.41;71.98;94736.19;5021202;28;20311;-80
2022/08/22 08:10:38;;;;;;;0.50;0.50;;;17.40;86.70;;;17.42;71.39;94753.72;5012439;28;20192;-80
2022/08/22 08:13:12;;;;;;;0.50;0.50;;;17.40;86.30;;;17.40;71.83;94747.84;5040736;28;20280;-80
2022/08/22 08:15:44;;;;;;;0.47;0.47;;;17.50;86.40;;;17.38;71.87;94744.66;5012314;28;20722;-79
2022/08/22 08:18:20;;;;;;;0.50;0.50;;;17.40;86.30;;;17.35;72.10;94742.47;5029645;28;20204;-81
2022/08/22 08:20:56;;;;;;;0.52;0.52;;;17.40;86.20;;;17.33;71.94;94749.84;5039926;28;20686;-80
2022/08/22 08:23:28;;;;;;;0.57;0.57;;;17.40;86.30;;;17.35;72.48;94746.97;5012630;28;20197;-80
2022/08/22 08:26:17;;;;;;;0.50;0.50;;;17.40;86.60;;;17.38;72.00;94746.47;5023305;28;20224;-80
2022/08/22 08:28:48;;;;;;;0.40;0.40;;;17.50;86.80;;;17.39;72.38;94750.75;5024571;28;20189;-80
2022/08/22 08:31:38;;;;;;;0.40;0.40;;;17.50;86.60;;;17.38;71.94;94746.47;5018424;28;20251;-79
2022/08/22 08:34:19;;;;;;;0.50;0.50;;;17.50;86.60;;;17.36;71.84;94752.03;5012927;28;20563;-79
2022/08/22 08:37:12;;;;;;;0.57;0.57;;;17.50;86.60;;;17.35;72.26;94752.28;5024815;28;20212;-79
2022/08/22 08:39:55;;;;;;;0.50;0.50;;;17.40;86.60;;;17.38;72.09;94757.09;5006519;28;20224;-79
2022/08/22 08:46:10;;;;;;;0.50;0.50;;;17.50;87.00;;;17.38;72.42;94755.25;5024032;28;20220;-79
2022/08/22 08:49:35;;;;;;;0.50;0.50;;;17.50;87.00;;;17.39;72.20;94766.66;5030074;28;20721;-79
2022/08/22 08:52:14;;;;;;;0.50;0.50;;;17.40;87.20;;;17.39;72.27;94758.69;5015741;28;20738;-79
2022/08/22 08:55:18;;;;;;;0.50;0.50;;;17.50;86.70;;;17.40;72.24;94763.75;5037088;28;20193;-79
2022/08/22 08:58:18;;;;;;;0.50;0.50;;;17.40;87.10;;;17.41;72.36;94756.63;4996730;28;20247;-78
2022/08/22 09:01:16;;;;;;;0.50;0.50;;;17.50;87.20;;;17.43;72.59;94765.13;4996637;28;20319;-79
2022/08/22 09:04:30;;;;;;;0.60;0.60;;;17.50;88.10;;;17.43;72.23;94754.50;5012469;28;20609;-79
2022/08/22 09:07:35;;;;;;;0.50;0.50;;;17.50;87.30;;;17.43;72.39;94765.94;5019258;28;20532;-79
2022/08/22 09:10:33;;;;;;;0.52;0.52;;;17.50;87.20;;;17.41;72.19;94759.28;5003846;28;20201;-79
2022/08/22 09:13:28;;;;;;;0.50;0.50;;;17.50;87.30;;;17.48;72.10;94769.72;5003117;28;20216;-79
2022/08/22 09:16:34;;;;;;;0.50;0.50;;;17.50;87.30;;;17.51;72.34;94763.94;5028797;28;20690;-80
2022/08/22 09:19:43;;;;;;;0.40;0.40;;;17.60;87.70;;;17.56;72.70;94762.16;5019677;28;20223;-79
2022/08/22 09:22:54;;;;;;;0.50;0.50;;;17.60;87.90;;;17.64;72.58;94757.50;5018930;28;20263;-79
2022/08/22 09:25:33;;;;;;;0.50;0.50;;;17.70;88.30;;;17.74;73.30;94752.41;5023230;28;20253;-79
2022/08/22 09:28:18;;;;;;;0.50;0.50;;;17.70;88.50;;;17.83;72.91;94761.53;5012713;28;20709;-80
2022/08/22 09:31:13;;;;;;;0.50;0.50;;;17.80;88.70;;;17.89;73.01;94760.59;5022807;28;20192;-79
2022/08/22 09:34:11;;;;;;;0.50;0.50;;;17.90;88.60;;;17.95;72.93;94768.66;5029226;28;20593;-80
2022/08/22 09:37:05;;;;;;;0.50;0.50;;;18.00;88.40;;;18.00;72.28;94774.06;4987633;28;20226;-80
2022/08/22 09:39:47;;;;;;;0.50;0.50;;;18.00;88.10;;;18.02;72.84;94771.97;5026355;28;20251;-80
2022/08/22 09:42:36;;;;;;;0.50;0.50;;;18.00;87.80;;;18.04;72.30;94770.69;4994812;28;20728;-80
2022/08/22 09:45:33;;;;;;;0.50;0.50;;;18.10;87.70;;;18.03;72.20;94769.06;5027612;28;20188;-80
2022/08/22 09:48:16;;;;;;;0.50;0.50;;;18.10;87.70;;;18.06;72.57;94770.44;5012271;28;20246;-80
2022/08/22 09:51:27;;;;;;;0.50;0.50;;;18.10;87.60;;;18.07;72.58;94767.53;5027634;28;20248;-80
2022/08/22 09:54:35;;;;;;;0.50;0.50;;;18.10;87.80;;;18.08;72.53;94771.78;5001677;28;20607;-80
2022/08/22 09:57:23;;;;;;;0.50;0.50;;;18.10;87.70;;;18.13;72.60;94771.06;5020905;28;20223;-81
2022/08/22 10:00:02;;;;;;;0.50;0.50;;;18.10;88.00;;;18.18;72.85;94770.34;5021199;28;20203;-80
2022/08/22 10:02:52;;;;;;;0.40;0.40;;;18.20;88.20;;;18.27;73.38;94773.38;5020995;28;20227;-81
2022/08/22 10:05:43;;;;;;;0.40;0.40;;;18.20;88.30;;;18.30;72.81;94768.41;4992315;28;20230;-80
2022/08/22 10:09:00;;;;;;;0.50;0.50;;;18.30;88.50;;;18.39;73.05;94780.22;5000537;28;20717;-80
2022/08/22 10:11:38;;;;;;;0.43;0.43;;;18.40;88.40;;;18.44;72.79;94774.16;5004685;28;20208;-80
2022/08/22 10:14:19;;;;;;;0.50;0.50;;;18.40;88.20;;;18.50;72.46;94775.03;4994146;28;20663;-80
2022/08/22 10:17:17;;;;;;;0.43;0.43;;;18.50;87.80;;;18.51;72.57;94764.16;5000459;28;20307;-80
2022/08/22 10:19:58;;;;;;;0.50;0.50;;;18.50;87.70;;;18.58;72.64;94764.00;5047345;28;20634;-78
2022/08/22 10:22:46;;;;;;;0.40;0.40;;;18.50;87.80;;;18.64;72.46;94762.19;5031289;28;20224;-80
2022/08/22 10:25:39;;;;;;;0.40;0.40;;;18.60;87.90;;;18.66;72.18;94754.78;5030926;28;20625;-80
2022/08/22 10:28:39;;;;;;;0.40;0.40;;;18.60;87.90;;;18.65;72.20;94756.66;5013033;28;20220;-79
2022/08/22 10:31:27;;;;;;;0.40;0.40;;;18.70;87.60;;;18.72;72.23;94765.25;5029329;28;20686;-80
2022/08/22 10:34:20;;;;;;;0.50;0.50;;;18.70;87.90;;;18.76;72.35;94768.22;5030584;28;20202;-80
2022/08/22 10:37:29;;;;;;;0.40;0.40;;;18.80;87.80;;;18.83;72.29;94760.84;5030911;28;20208;-79
2022/08/22 10:40:25;;;;;;;0.40;0.40;;;18.80;88.80;;;18.88;72.36;94766.25;5035326;28;20658;-80
2022/08/22 10:43:07;;;;;;;0.40;0.40;;;18.90;87.60;;;18.91;71.87;94764.13;5051439;28;20315;-79
2022/08/22 10:45:46;;;;;;;0.50;0.50;;;19.00;87.50;;;18.95;71.38;94767.94;5035233;28;20557;-79
2022/08/22 10:48:34;;;;;;;0.50;0.50;;;19.00;86.80;;;18.97;71.51;94769.28;5018585;28;20214;-79
2022/08/22 10:51:21;;;;;;;0.50;0.50;;;19.00;86.90;;;19.02;71.88;94771.22;5034896;28;20230;-80
2022/08/22 10:54:14;;;;;;;0.40;0.40;;;19.00;87.30;;;18.99;69.89;94766.38;5051339;28;20642;-80
2022/08/22 10:57:06;;;;;;;0.50;0.50;;;19.10;86.80;;;19.00;71.05;94771.44;5035722;28;20211;-79
2022/08/22 10:59:47;;;;;;;0.40;0.40;;;19.10;87.30;;;19.03;71.40;94776.28;5035031;28;20204;-79
2022/08/22 11:02:34;;;;;;;0.40;0.40;;;19.10;86.50;;;19.07;71.40;94768.59;5051177;28;20265;-80
2022/08/22 11:05:42;;;;;;;0.40;0.40;;;19.10;86.80;;;19.10;71.61;94757.47;5034914;28;20253;-80
2022/08/22 11:08:58;;;;;;;0.47;0.47;;;19.10;86.30;;;19.07;71.19;94757.19;5034835;28;20224;-80
2022/08/22 11:11:41;;;;;;;0.50;0.50;;;19.10;86.10;;;19.03;70.71;94762.97;5018238;28;20744;-80
2022/08/22 11:14:26;;;;;;;0.50;0.50;;;19.10;85.60;;;18.95;70.71;94763.41;5051162;28;20303;-80
2022/08/22 11:17:31;;;;;;;0.50;0.50;;;19.10;85.50;;;18.98;70.51;94770.91;5034443;28;20248;-79
2022/08/22 11:20:54;;;;;;;0.40;0.40;;;19.10;85.60;;;18.94;70.75;94766.31;5034613;28;20184;-80
2022/08/22 11:23:30;;;;;;;0.40;0.40;;;19.10;85.40;;;18.93;70.61;94762.88;5051026;28;20654;-80
2022/08/22 11:26:15;;;;;;;0.65;0.65;;;19.10;85.50;;;18.97;70.45;94773.78;5034481;28;20230;-80
2022/08/22 11:29:37;;;;;;;0.50;0.50;;;19.10;85.10;;;18.86;70.59;94770.19;5035451;28;20191;-80
2022/08/22 11:32:48;;;;;;;0.40;0.40;;;19.00;84.90;;;18.86;69.28;94775.50;5033543;28;20698;-80
2022/08/22 11:35:24;;;;;;;0.50;0.50;;;19.00;84.10;;;18.75;69.04;94785.22;5034140;28;20196;-80
2022/08/22 11:38:15;;;;;;;0.60;0.60;;;19.00;83.50;;;18.65;69.38;94779.75;5017428;28;20224;-79
2022/08/22 11:40:58;;;;;;;0.50;0.50;;;18.90;83.40;;;18.61;69.41;94781.28;5034229;28;20208;-80
2022/08/22 11:44:10;;;;;;;0.50;0.50;;;18.80;83.80;;;18.56;69.70;94782.03;5035154;28;20208;-79
2022/08/22 11:46:45;;;;;;;0.50;0.50;;;18.80;83.60;;;18.54;69.60;94784.94;5025043;28;20254;-80
2022/08/22 11:49:30;;;;;;;0.50;0.50;;;18.70;83.70;;;18.52;69.99;94783.56;5027585;28;20283;-79
2022/08/22 11:52:19;;;;;;;0.50;0.50;;;18.70;83.80;;;18.49;69.77;94781.41;5031126;28;20225;-80
2022/08/22 11:55:04;;;;;;;0.50;0.50;;;18.70;83.60;;;18.46;69.42;94785.34;5023308;28;20200;-80
2022/08/22 11:57:47;;;;;;;0.50;0.50;;;18.60;83.70;;;18.46;70.11;94784.56;5021517;28;20299;-80